Briefing drone pour Montchanin

Rechercher une autre localisation

Conditions de vol :


Nous sommes le : Lundi 04 juillet 2022
Il est 12:07 UTC (14:07 LT)

Lever de soleil : 03:28 UTC (05:28 LT)
Coucher de soleil : 20:04 UTC (22:04 LT)

Météo

L'essentiel des conditions de vol

VIGILANCE MÉTÉO FRANCE - Saône-et-Loire (71)
Vigilance Jaune : Orages
CARTES DES FRONTS
METAR de LFLH
LFLH 041200Z AUTO 01005KT 340V050 CAVOK 23/14 Q1020

Date d'émission: 04/07/2022
Heure d'émission: 12:00 UTC
Vent: 010° (variable du 340° au 050°) pour 5 KT (9 km/h)
Visibilité horizontale: > 10 km
Plafond : Plafond et visibilité OK (CAVOK)
Température: 23 °C
Point de rosée: 14 °C
Humidité: 57%
Pression (QNH): 1020 hPa
Prévision 24h pour Chalon-sur-saone (19 km)
Vent : 25° pour 2 KT (7 km/h)
Temperature Maxi: 22 °C
Temperature Min: 22 °C
Humidité : 51%
Condition : Ciel dégagé



Warning: count(): Parameter must be an array or an object that implements Countable in /homepages/6/d509196549/htdocs/droneoxygene/briefing.php on line 743
WEBCAM POUR MONTCHANIN

Réglementation

Voler en sécurité

CARTES AERONAUTIQUE 1/500.000
CARTES VAC (LFLH)
SUP AIP




Chargement des AIP...
NOTAM (MONTCHANIN + Terrain à proximité / FIR )




Chargement des NOTAMS...
CONTACT PREFECTURE 71


Avertissement : Les données mises à disposition sont indicatives. Oxygène Drone ne pourra être tenu responsable de dégâts causés aux biens et aux personnes.